Time;durP1;ratioP1;P1;durP2;ratioP2;P2;SDS_P1;SDS_P2;PMS_P1;PMS_P2;Temp;Humidity;BMP_temperature;BMP_pressure;BME280_temperature;BME280_humidity;BME280_pressure;Samples;Min_cycle;Max_cycle;Signal;HPM_P1;HPM_P2
2021/06/15 00:01:19;;;;;;;6.78;2.53;;;;;;;15.77;72.69;96928.66;4979752;28;20547;-64
2021/06/15 00:03:44;;;;;;;3.90;2.30;;;;;;;15.65;73.04;96927.03;4985520;28;20161;-64
2021/06/15 00:06:10;;;;;;;3.88;2.33;;;;;;;15.53;72.43;96921.13;4978484;28;20062;-64
2021/06/15 00:08:35;;;;;;;6.18;3.00;;;;;;;15.36;72.57;96920.72;4985566;28;20042;-65
2021/06/15 00:11:01;;;;;;;4.30;3.25;;;;;;;15.24;74.72;96921.88;4985090;28;20057;-64
2021/06/15 00:13:26;;;;;;;10.55;2.58;;;;;;;15.32;74.84;96924.63;4979654;28;20360;-64
2021/06/15 00:15:52;;;;;;;7.63;2.47;;;;;;;15.19;75.68;96921.47;4984717;28;20052;-64
2021/06/15 00:18:19;;;;;;;7.40;2.35;;;;;;;15.23;76.06;96922.25;4979515;28;20109;-64
2021/06/15 00:20:46;;;;;;;6.05;2.78;;;;;;;15.13;75.81;96921.06;4984776;28;20047;-64
2021/06/15 00:23:11;;;;;;;5.22;2.60;;;;;;;14.77;77.86;96920.97;4980857;28;20053;-65
2021/06/15 00:25:37;;;;;;;5.93;3.25;;;;;;;14.51;78.72;96922.81;4988106;28;20042;-65
2021/06/15 00:28:03;;;;;;;8.73;3.17;;;;;;;14.22;80.78;96926.59;4983999;28;20046;-62
2021/06/15 00:30:30;;;;;;;14.25;6.53;;;;;;;14.01;81.77;96917.03;4983657;28;20112;-63
2021/06/15 00:32:56;;;;;;;9.82;4.07;;;;;;;13.63;83.72;96924.63;4985105;28;20074;-65
2021/06/15 00:35:22;;;;;;;6.90;3.65;;;;;;;13.51;84.63;96922.97;4979349;28;21013;-64
2021/06/15 00:37:49;;;;;;;10.48;3.75;;;;;;;13.42;85.49;96924.47;4998878;28;20046;-63
2021/06/15 00:40:14;;;;;;;5.70;3.38;;;;;;;13.44;85.59;96913.88;4980231;28;20061;-63
2021/06/15 00:42:40;;;;;;;5.22;3.13;;;;;;;13.55;85.37;96914.72;4985134;28;20125;-64
2021/06/15 00:45:08;;;;;;;4.85;2.70;;;;;;;13.67;84.10;96917.19;4979516;28;20145;-63
2021/06/15 00:47:33;;;;;;;7.65;3.58;;;;;;;13.75;83.68;96918.03;4984983;28;20133;-65
2021/06/15 00:49:59;;;;;;;3.85;2.90;;;;;;;13.81;83.49;96912.94;4984654;28;20491;-64
2021/06/15 00:52:24;;;;;;;5.57;3.30;;;;;;;13.79;83.28;96907.81;4979742;28;20631;-64
2021/06/15 00:54:50;;;;;;;7.22;3.00;;;;;;;13.86;83.36;96901.59;4984516;28;20101;-65
2021/06/15 00:57:18;;;;;;;5.45;3.08;;;;;;;13.92;83.08;96902.81;4979170;28;20403;-64
2021/06/15 00:59:43;;;;;;;5.45;3.17;;;;;;;14.04;82.88;96908.00;4983338;28;20423;-66
2021/06/15 01:02:09;;;;;;;6.85;3.33;;;;;;;14.24;81.86;96907.72;4979590;28;20045;-64
2021/06/15 01:04:35;;;;;;;4.00;2.80;;;;;;;14.28;81.14;96897.53;4982047;28;20042;-65
2021/06/15 01:07:19;;;;;;;4.65;2.90;;;;;;;14.22;80.67;96899.03;4984507;28;20549;-65
2021/06/15 01:09:50;;;;;;;6.30;3.10;;;;;;;14.25;81.48;96901.81;4985335;28;20093;-65
2021/06/15 01:12:45;;;;;;;3.70;2.72;;;;;;;14.30;80.28;96901.44;4979212;28;20046;-63
2021/06/15 01:15:13;;;;;;;4.18;3.00;;;;;;;14.26;79.69;96906.16;4998048;28;20056;-63
2021/06/15 01:17:56;;;;;;;5.57;3.17;;;;;;;14.18;80.83;96901.00;4985917;28;20049;-66
2021/06/15 01:20:33;;;;;;;7.10;3.45;;;;;;;14.17;81.24;96902.97;4997920;28;21623;-66
2021/06/15 01:23:10;;;;;;;4.90;3.00;;;;;;;14.20;80.01;96904.94;4996572;28;20050;-66
2021/06/15 01:25:41;;;;;;;5.13;3.05;;;;;;;14.00;78.76;96907.19;4994736;28;20046;-66
2021/06/15 01:28:36;;;;;;;6.57;3.13;;;;;;;13.89;80.72;96903.59;5002351;28;20132;-66
2021/06/15 01:31:06;;;;;;;6.97;2.72;;;;;;;13.94;80.69;96911.47;5003343;28;20061;-67
2021/06/15 01:33:36;;;;;;;8.55;2.90;;;;;;;14.05;80.82;96909.59;5002586;28;20046;-66
2021/06/15 01:36:02;;;;;;;6.45;2.95;;;;;;;14.06;79.86;96915.88;5002917;28;20042;-66
2021/06/15 01:38:44;;;;;;;7.25;2.97;;;;;;;14.01;79.89;96913.47;5001778;28;20041;-66
2021/06/15 01:41:13;;;;;;;5.57;3.10;;;;;;;13.84;78.76;96920.47;5005910;28;20037;-67
2021/06/15 01:43:44;;;;;;;4.72;3.00;;;;;;;13.55;80.54;96915.50;5002089;28;20073;-66
2021/06/15 01:46:12;;;;;;;6.05;3.20;;;;;;;13.36;81.48;96916.56;4992615;28;20053;-65
2021/06/15 01:48:51;;;;;;;8.30;3.53;;;;;;;13.57;83.12;96915.91;4994439;28;20046;-65
2021/06/15 01:51:19;;;;;;;5.10;3.00;;;;;;;13.67;82.33;96910.91;4996691;28;20050;-64
2021/06/15 01:53:51;;;;;;;3.85;2.63;;;;;;;13.75;82.24;96904.25;5006515;28;20328;-66
2021/06/15 01:56:19;;;;;;;5.60;3.28;;;;;;;13.83;81.49;96907.84;4999221;28;20037;-65
2021/06/15 01:58:46;;;;;;;4.28;3.10;;;;;;;13.82;81.57;96898.03;5014433;23;20058;-65
2021/06/15 02:01:13;;;;;;;4.85;3.10;;;;;;;13.88;81.69;96896.47;5012745;28;20099;-65
2021/06/15 02:03:39;;;;;;;5.18;3.05;;;;;;;13.83;81.61;96896.84;5019921;28;20500;-65
2021/06/15 02:06:05;;;;;;;5.30;3.58;;;;;;;13.62;81.74;96903.00;5018027;28;20037;-65
2021/06/15 02:08:39;;;;;;;6.03;3.58;;;;;;;13.35;83.34;96900.41;5021615;28;20045;-65
2021/06/15 02:11:05;;;;;;;7.63;4.05;;;;;;;12.99;85.60;96894.56;5016844;28;20041;-67
2021/06/15 02:13:36;;;;;;;8.25;4.00;;;;;;;13.10;85.72;96895.44;5021192;28;20056;-65
2021/06/15 02:16:02;;;;;;;8.10;3.65;;;;;;;13.29;85.12;96891.69;5021127;28;20128;-65
2021/06/15 02:18:30;;;;;;;6.63;3.65;;;;;;;13.35;84.50;96895.69;5019838;28;20107;-63
2021/06/15 02:20:57;;;;;;;8.38;3.60;;;;;;;13.36;84.50;96889.03;5011349;28;20053;-63
2021/06/15 02:23:25;;;;;;;7.05;3.42;;;;;;;13.36;83.66;96894.53;5010341;28;21044;-64
2021/06/15 02:25:54;;;;;;;6.38;4.00;;;;;;;13.29;81.55;96891.69;5013703;28;20068;-64
2021/06/15 02:28:20;;;;;;;13.63;4.90;;;;;;;13.33;83.60;96894.50;5009965;28;20148;-64
2021/06/15 02:30:46;;;;;;;10.65;3.78;;;;;;;13.39;83.85;96890.22;5013237;28;20497;-64
2021/06/15 02:33:14;;;;;;;6.72;3.42;;;;;;;13.38;83.17;96897.69;5016995;28;20056;-64
2021/06/15 02:35:52;;;;;;;6.75;4.00;;;;;;;13.26;81.74;96888.91;5011900;28;20037;-64
2021/06/15 02:38:26;;;;;;;6.85;3.80;;;;;;;13.27;83.16;96887.72;5015483;28;20063;-64
2021/06/15 02:40:54;;;;;;;7.30;3.17;;;;;;;13.21;82.63;96892.78;5019057;28;20037;-66
2021/06/15 02:43:23;;;;;;;7.50;3.38;;;;;;;13.16;83.47;96891.19;5010493;28;20049;-66
2021/06/15 02:45:51;;;;;;;7.30;3.30;;;;;;;13.11;82.96;96897.03;5006816;28;20050;-65
2021/06/15 02:48:18;;;;;;;6.75;3.20;;;;;;;13.01;82.93;96892.22;5008005;28;20046;-65
2021/06/15 02:50:45;;;;;;;7.97;3.63;;;;;;;12.95;82.96;96896.50;5011190;28;20037;-64
2021/06/15 02:53:34;;;;;;;5.57;3.20;;;;;;;12.88;82.96;96888.94;4995971;28;20038;-65
2021/06/15 02:56:19;;;;;;;5.68;3.63;;;;;;;12.95;84.13;96888.25;5010872;28;20046;-65
2021/06/15 02:58:45;;;;;;;4.93;3.40;;;;;;;12.53;85.06;96884.66;5012281;28;20046;-64
2021/06/15 03:01:11;;;;;;;9.23;3.70;;;;;;;12.29;85.22;96885.13;5002673;28;20120;-64
2021/06/15 03:03:37;;;;;;;8.73;3.78;;;;;;;12.15;85.88;96900.25;4999772;28;20621;-65
2021/06/15 03:06:04;;;;;;;6.80;3.80;;;;;;;11.99;87.83;96913.38;5006703;28;20041;-66
2021/06/15 03:08:30;;;;;;;6.93;4.47;;;;;;;11.91;89.20;96912.47;5012389;28;20052;-65
2021/06/15 03:10:56;;;;;;;6.80;3.78;;;;;;;12.04;89.37;96902.06;5011971;28;20041;-65
2021/06/15 03:13:43;;;;;;;9.05;4.22;;;;;;;12.20;88.86;96893.66;5007443;28;20057;-65
2021/06/15 03:16:14;;;;;;;6.28;3.97;;;;;;;12.14;88.28;96904.19;5003649;28;20732;-65
2021/06/15 03:18:57;;;;;;;8.90;3.63;;;;;;;12.17;88.41;96908.94;5010912;28;20045;-63
2021/06/15 03:21:24;;;;;;;5.43;3.55;;;;;;;12.17;86.94;96903.44;5001008;28;20065;-65
2021/06/15 03:23:54;;;;;;;8.80;3.80;;;;;;;12.23;87.15;96915.66;5010874;28;20054;-65
2021/06/15 03:26:54;;;;;;;8.50;3.50;;;;;;;12.23;85.05;96906.66;4988545;28;20081;-63
2021/06/15 03:29:23;;;;;;;6.28;3.35;;;;;;;12.20;85.14;96899.94;5008656;28;20053;-65
2021/06/15 03:31:52;;;;;;;7.65;4.25;;;;;;;12.46;86.45;96912.03;5019967;28;20041;-64
2021/06/15 03:34:21;;;;;;;5.78;3.65;;;;;;;12.62;85.82;96909.06;5005180;28;20084;-64
2021/06/15 03:36:48;;;;;;;6.35;3.80;;;;;;;12.80;84.92;96904.59;5014687;28;20524;-63
2021/06/15 03:39:18;;;;;;;5.78;3.58;;;;;;;12.91;83.84;96909.38;5011065;28;20052;-65
2021/06/15 03:41:44;;;;;;;5.90;3.70;;;;;;;12.92;83.56;96908.22;5024901;28;20470;-66
2021/06/15 03:44:12;;;;;;;6.57;3.80;;;;;;;13.03;83.11;96914.63;5017741;28;20073;-66
2021/06/15 03:46:40;;;;;;;10.60;4.18;;;;;;;13.17;82.50;96909.25;5021841;28;20037;-65
2021/06/15 03:49:10;;;;;;;9.80;4.03;;;;;;;13.36;81.80;96916.56;5015498;28;20053;-64
2021/06/15 03:51:41;;;;;;;7.97;3.42;;;;;;;13.46;80.89;96917.81;5011206;28;20128;-65
2021/06/15 03:54:09;;;;;;;9.02;5.00;;;;;;;13.57;79.99;96912.38;5014104;28;20041;-65
2021/06/15 03:56:38;;;;;;;7.00;3.83;;;;;;;13.66;79.72;96925.81;5011658;28;20042;-64
2021/06/15 03:59:08;;;;;;;9.85;3.63;;;;;;;13.69;79.72;96922.31;5007604;28;20653;-65
2021/06/15 04:01:40;;;;;;;6.18;4.10;;;;;;;13.78;78.50;96928.28;5003748;28;20038;-64
2021/06/15 04:04:10;;;;;;;6.30;3.72;;;;;;;13.89;78.06;96925.59;5004382;28;20052;-66
2021/06/15 04:06:40;;;;;;;8.02;3.78;;;;;;;14.07;77.83;96923.75;5011845;28;20096;-64
2021/06/15 04:09:07;;;;;;;7.32;3.90;;;;;;;14.30;76.42;96923.50;4997211;28;20049;-65
2021/06/15 04:11:36;;;;;;;8.25;4.07;;;;;;;14.44;75.82;96930.25;4994498;28;20510;-65
2021/06/15 04:14:03;;;;;;;7.00;3.63;;;;;;;14.58;75.23;96929.56;5009620;28;20056;-65
2021/06/15 04:16:28;;;;;;;13.35;4.50;;;;;;;14.68;74.13;96920.56;5002281;28;20045;-65
2021/06/15 04:19:01;;;;;;;8.75;3.83;;;;;;;14.82;73.98;96928.06;5009041;28;20107;-65
2021/06/15 04:21:29;;;;;;;7.57;4.20;;;;;;;15.11;73.22;96928.94;5001526;28;20074;-64
2021/06/15 04:24:02;;;;;;;6.15;3.40;;;;;;;15.31;72.37;96932.13;5000008;28;20473;-65
2021/06/15 04:26:27;;;;;;;12.27;4.30;;;;;;;15.50;71.69;96925.44;4979116;28;20045;-63
2021/06/15 04:28:54;;;;;;;10.00;3.95;;;;;;;15.67;71.59;96932.94;5008310;28;20502;-65
2021/06/15 04:31:23;;;;;;;6.78;3.58;;;;;;;15.90;70.52;96939.25;5006942;28;20068;-63
2021/06/15 04:33:50;;;;;;;9.85;4.68;;;;;;;16.13;69.46;96930.56;5005746;28;20050;-65
2021/06/15 04:36:17;;;;;;;6.03;3.30;;;;;;;16.59;67.59;96940.72;4983297;28;20037;-64
2021/06/15 04:38:59;;;;;;;10.38;4.18;;;;;;;16.97;66.42;96940.97;5005668;28;20038;-64
2021/06/15 04:41:29;;;;;;;8.48;3.88;;;;;;;17.74;63.56;96938.09;5007166;28;20037;-65
2021/06/15 04:44:04;;;;;;;6.78;3.20;;;;;;;18.29;61.22;96933.66;5021120;28;20050;-68
2021/06/15 04:46:37;;;;;;;6.43;3.65;;;;;;;18.58;60.14;96933.31;5013198;28;20084;-65
2021/06/15 04:49:21;;;;;;;6.63;3.38;;;;;;;19.90;56.70;96931.91;5001741;28;20460;-66
2021/06/15 04:51:50;;;;;;;7.28;3.20;;;;;;;21.84;51.25;96930.78;5013487;28;20410;-66
2021/06/15 04:54:20;;;;;;;8.98;3.30;;;;;;;23.70;45.16;96923.97;5008862;28;20057;-65
2021/06/15 04:56:48;;;;;;;7.30;2.90;;;;;;;24.79;42.97;96931.88;5011295;28;20048;-65
2021/06/15 04:59:15;;;;;;;5.47;2.85;;;;;;;26.07;39.50;96929.34;5005771;28;20504;-63
2021/06/15 05:01:43;;;;;;;4.63;2.40;;;;;;;26.73;38.22;96923.34;5018850;28;20511;-65
2021/06/15 05:04:08;;;;;;;5.38;2.25;;;;;;;27.68;35.72;96926.19;5007194;28;20046;-66
2021/06/15 05:06:38;;;;;;;7.68;2.50;;;;;;;28.29;33.96;96914.75;5014543;28;20103;-66
2021/06/15 05:09:05;;;;;;;4.28;2.03;;;;;;;28.74;33.19;96921.34;5007985;28;20107;-67
2021/06/15 05:11:36;;;;;;;4.07;2.08;;;;;;;29.02;32.05;96937.97;5006357;28;20046;-65
2021/06/15 05:14:04;;;;;;;3.80;2.25;;;;;;;28.78;31.85;96933.19;5003562;28;20046;-65
2021/06/15 05:16:34;;;;;;;4.80;2.47;;;;;;;29.78;31.13;96923.34;5013068;28;20048;-65
2021/06/15 05:19:01;;;;;;;3.40;1.70;;;;;;;30.19;30.40;96927.00;5003401;28;20503;-65
2021/06/15 05:21:53;;;;;;;5.30;1.90;;;;;;;30.66;29.75;96927.06;5009884;28;20076;-65
2021/06/15 05:24:46;;;;;;;4.03;1.67;;;;;;;30.81;29.46;96932.63;5011727;28;20402;-64
2021/06/15 05:27:33;;;;;;;9.70;2.03;;;;;;;31.09;28.75;96935.78;5002856;28;20050;-64
2021/06/15 05:30:00;;;;;;;5.88;2.38;;;;;;;31.34;29.10;96931.38;5008092;28;20073;-64
2021/06/15 05:32:25;;;;;;;3.45;2.10;;;;;;;31.56;28.08;96930.03;5005675;28;20045;-64
2021/06/15 05:34:51;;;;;;;3.42;2.00;;;;;;;30.98;28.58;96932.84;5005334;28;20491;-63
2021/06/15 05:37:18;;;;;;;6.78;2.08;;;;;;;31.60;28.48;96931.38;5010426;28;20140;-64
2021/06/15 05:39:44;;;;;;;5.63;1.85;;;;;;;31.76;28.00;96935.56;4995115;28;20370;-65
2021/06/15 05:42:11;;;;;;;5.30;1.80;;;;;;;31.90;28.09;96936.69;4979190;28;20081;-65
2021/06/15 05:44:37;;;;;;;7.35;2.70;;;;;;;27.95;33.82;96937.34;5002916;28;20377;-65
2021/06/15 05:47:03;;;;;;;2.80;1.50;;;;;;;30.20;30.51;96944.75;5002337;28;20072;-64
2021/06/15 05:49:29;;;;;;;4.40;2.08;;;;;;;30.76;29.87;96939.78;5001325;28;20152;-63
2021/06/15 05:52:04;;;;;;;4.90;1.65;;;;;;;31.43;29.23;96927.59;5006387;28;20039;-62
2021/06/15 05:54:30;;;;;;;6.78;1.60;;;;;;;32.10;27.96;96926.53;5008459;28;20079;-65
2021/06/15 05:56:56;;;;;;;6.82;1.85;;;;;;;32.15;27.57;96929.41;5021861;28;20045;-65
2021/06/15 05:59:22;;;;;;;4.68;2.08;;;;;;;32.90;26.83;96934.88;5017003;28;20061;-65
2021/06/15 06:01:48;;;;;;;3.05;1.20;;;;;;;32.86;25.39;96934.34;5023308;28;20449;-62
2021/06/15 06:04:15;;;;;;;5.30;1.95;;;;;;;33.78;24.73;96928.25;4991354;28;20049;-63
2021/06/15 06:09:25;;;;;;;5.38;1.77;;;;;;;34.17;23.71;96929.44;5005858;28;20057;-64
2021/06/15 06:11:51;;;;;;;3.92;1.95;;;;;;;34.74;23.85;96930.81;5005613;28;20037;-64
2021/06/15 06:14:16;;;;;;;4.15;1.75;;;;;;;34.12;24.84;96928.16;5009380;28;20049;-64
2021/06/15 06:16:42;;;;;;;6.70;1.90;;;;;;;34.41;24.29;96923.19;5002223;28;20394;-63
2021/06/15 06:19:10;;;;;;;4.72;1.85;;;;;;;33.92;25.39;96932.09;5003840;28;20498;-64
2021/06/15 06:21:36;;;;;;;4.68;1.60;;;;;;;34.32;25.15;96932.78;5018129;28;20049;-64
2021/06/15 06:24:04;;;;;;;4.47;1.98;;;;;;;33.59;26.36;96927.22;5006922;28;20414;-64
2021/06/15 06:26:30;;;;;;;8.00;2.45;;;;;;;31.80;29.22;96935.34;5003784;28;20156;-65
2021/06/15 06:28:56;;;;;;;6.65;1.83;;;;;;;32.54;28.50;96942.22;5009254;28;20486;-65
2021/06/15 06:31:22;;;;;;;3.75;1.83;;;;;;;32.02;29.53;96943.22;5004233;28;20046;-65
2021/06/15 06:33:47;;;;;;;7.22;2.58;;;;;;;30.57;31.74;96944.97;5014345;28;20048;-63
2021/06/15 06:36:13;;;;;;;8.07;2.15;;;;;;;30.89;31.17;96942.22;5003882;28;20049;-64
2021/06/15 06:38:39;;;;;;;2.72;1.85;;;;;;;31.67;30.08;96935.00;5008196;28;20056;-64
2021/06/15 06:41:04;;;;;;;4.88;2.60;;;;;;;26.81;37.98;96940.66;5003127;28;20050;-64
2021/06/15 06:43:30;;;;;;;5.05;2.53;;;;;;;29.28;33.92;96946.63;5000576;28;20121;-63
2021/06/15 06:45:55;;;;;;;6.72;2.70;;;;;;;30.70;30.77;96936.09;5000812;28;20199;-63
2021/06/15 06:48:21;;;;;;;4.63;2.00;;;;;;;32.81;28.18;96942.81;4995142;28;20042;-63
2021/06/15 06:50:46;;;;;;;5.88;2.17;;;;;;;27.94;35.75;96941.41;5007274;28;20519;-63
2021/06/15 06:53:12;;;;;;;6.45;2.42;;;;;;;29.36;33.44;96939.34;4987514;28;20045;-62
2021/06/15 06:55:37;;;;;;;8.20;2.45;;;;;;;31.16;30.42;96929.66;5008306;28;20091;-63
2021/06/15 06:58:03;;;;;;;5.40;2.08;;;;;;;31.67;29.40;96932.94;4997764;28;20045;-63
2021/06/15 07:00:29;;;;;;;5.75;2.63;;;;;;;32.13;28.78;96925.53;5017217;28;20037;-62
2021/06/15 07:02:55;;;;;;;7.70;3.75;;;;;;;32.29;28.65;96919.19;5000921;28;20061;-63
2021/06/15 07:05:20;;;;;;;9.25;2.35;;;;;;;31.38;29.14;96922.66;4999656;28;20152;-63
2021/06/15 07:07:46;;;;;;;5.60;1.80;;;;;;;31.12;29.87;96931.19;5011966;28;20426;-64
2021/06/15 07:10:12;;;;;;;2.50;1.80;;;;;;;31.87;28.12;96931.28;5009004;28;20045;-63
2021/06/15 07:12:37;;;;;;;3.65;1.90;;;;;;;31.57;28.43;96926.69;5020938;28;20410;-63
2021/06/15 07:15:05;;;;;;;8.13;2.08;;;;;;;31.77;27.99;96922.97;5001237;28;20041;-64
2021/06/15 07:17:31;;;;;;;4.15;2.38;;;;;;;27.03;36.16;96926.41;5022274;28;20140;-63
2021/06/15 07:19:56;;;;;;;6.60;1.80;;;;;;;29.28;32.68;96929.72;5008706;28;20507;-63
2021/06/15 07:22:22;;;;;;;4.18;1.95;;;;;;;27.49;36.25;96926.28;5005630;28;20507;-64
2021/06/15 07:24:47;;;;;;;2.80;1.67;;;;;;;30.18;31.05;96928.28;5001994;28;20430;-63
2021/06/15 07:27:13;;;;;;;8.25;2.75;;;;;;;26.86;36.66;96925.97;5001056;28;20494;-65
2021/06/15 07:29:38;;;;;;;6.82;2.20;;;;;;;30.36;31.55;96915.16;5008825;28;20041;-65
2021/06/15 07:32:04;;;;;;;5.07;2.30;;;;;;;27.70;35.00;96918.84;5021931;28;20124;-66
2021/06/15 07:34:30;;;;;;;5.28;2.60;;;;;;;29.46;32.64;96920.25;5018335;28;20136;-65
2021/06/15 07:36:55;;;;;;;4.78;2.35;;;;;;;31.05;30.29;96923.91;5019451;28;20200;-66
2021/06/15 07:39:20;;;;;;;2.90;1.42;;;;;;;33.05;27.58;96914.00;5007340;28;20073;-66
2021/06/15 07:41:46;;;;;;;4.10;1.90;;;;;;;34.04;25.99;96915.78;5006771;28;20441;-64
2021/06/15 07:44:12;;;;;;;5.57;1.98;;;;;;;34.47;26.08;96919.03;4996108;28;20197;-64
2021/06/15 07:46:37;;;;;;;6.15;2.10;;;;;;;33.94;26.50;96911.69;5000675;28;20046;-64
2021/06/15 07:49:04;;;;;;;4.22;2.53;;;;;;;32.99;27.83;96911.16;5000801;28;20065;-64
2021/06/15 07:51:29;;;;;;;7.82;2.40;;;;;;;32.93;28.44;96896.94;5012690;28;20509;-65
2021/06/15 07:53:56;;;;;;;5.28;2.38;;;;;;;31.91;29.89;96900.66;4982765;28;20050;-65
2021/06/15 07:56:23;;;;;;;5.53;2.42;;;;;;;30.42;33.01;96913.97;4995297;28;20042;-65
2021/06/15 07:58:48;;;;;;;7.22;3.58;;;;;;;31.06;31.69;96916.97;5000110;28;20116;-65
2021/06/15 08:01:14;;;;;;;6.90;2.33;;;;;;;30.87;31.94;96914.44;5031819;22;20061;-66
2021/06/15 08:03:39;;;;;;;8.27;2.47;;;;;;;30.65;33.07;96914.22;5047607;28;20051;-66
2021/06/15 08:06:05;;;;;;;6.38;2.95;;;;;;;29.96;35.10;96913.84;5034016;28;20108;-63
2021/06/15 08:08:31;;;;;;;7.85;3.28;;;;;;;30.46;33.25;96914.50;5039991;28;20526;-66
2021/06/15 08:10:56;;;;;;;10.02;3.17;;;;;;;30.51;33.20;96901.75;5012850;28;20065;-66
2021/06/15 08:13:22;;;;;;;6.40;2.83;;;;;;;29.88;35.51;96907.84;5013150;28;20571;-65
2021/06/15 08:15:49;;;;;;;10.43;3.05;;;;;;;28.67;37.63;96901.97;5020378;28;20132;-65
2021/06/15 08:18:16;;;;;;;10.45;3.47;;;;;;;28.72;37.65;96893.63;5017170;28;20533;-65
2021/06/15 08:20:43;;;;;;;7.93;2.90;;;;;;;28.49;38.61;96902.91;5022190;28;20049;-65
2021/06/15 08:23:09;;;;;;;6.55;3.17;;;;;;;28.35;39.70;96907.22;5022760;28;20037;-63
2021/06/15 08:25:34;;;;;;;4.78;3.05;;;;;;;28.60;38.53;96901.09;5028739;28;20132;-65
2021/06/15 08:27:59;;;;;;;6.93;3.38;;;;;;;27.54;40.32;96910.81;5025383;28;20073;-65
2021/06/15 08:30:25;;;;;;;9.40;3.40;;;;;;;27.16;42.16;96910.13;4999449;28;20041;-65
2021/06/15 08:32:51;;;;;;;7.32;4.10;;;;;;;26.60;43.54;96903.81;5023801;28;20128;-64
2021/06/15 08:35:16;;;;;;;6.15;3.63;;;;;;;26.14;44.76;96900.97;5018600;28;20045;-64
2021/06/15 08:37:42;;;;;;;7.25;3.60;;;;;;;26.41;44.65;96905.06;5024306;28;20513;-65
2021/06/15 08:40:09;;;;;;;8.18;3.70;;;;;;;25.82;45.88;96899.50;5017497;28;20055;-65
2021/06/15 08:42:37;;;;;;;7.78;4.45;;;;;;;26.18;44.95;96912.88;5023185;28;20044;-65
2021/06/15 08:45:08;;;;;;;7.03;4.10;;;;;;;26.27;45.18;96907.25;5001513;28;20149;-64
2021/06/15 08:47:40;;;;;;;7.53;3.83;;;;;;;26.35;45.13;96901.31;5003669;28;20077;-65
2021/06/15 08:50:07;;;;;;;6.28;4.03;;;;;;;26.57;44.91;96906.78;4998642;28;20560;-66
2021/06/15 08:52:37;;;;;;;7.70;4.18;;;;;;;26.31;44.63;96905.06;5003656;28;20053;-66
2021/06/15 08:55:05;;;;;;;10.85;4.13;;;;;;;26.58;44.63;96900.69;4984839;28;20046;-66
2021/06/15 08:57:33;;;;;;;6.57;4.05;;;;;;;26.81;44.78;96898.50;5022122;28;20100;-66
2021/06/15 09:00:01;;;;;;;9.88;4.35;;;;;;;26.67;44.98;96892.28;5023527;28;20045;-66
2021/06/15 09:02:27;;;;;;;9.98;4.20;;;;;;;26.92;44.82;96887.56;5019972;28;20037;-66
2021/06/15 09:04:53;;;;;;;8.77;3.47;;;;;;;26.29;45.91;96887.91;5022292;28;20169;-64
2021/06/15 09:07:19;;;;;;;8.98;4.53;;;;;;;26.12;46.80;96901.44;5014531;28;20132;-65
2021/06/15 09:09:46;;;;;;;9.30;5.47;;;;;;;26.49;46.25;96889.47;5028371;28;20042;-65
2021/06/15 09:12:14;;;;;;;8.95;4.13;;;;;;;27.07;45.82;96882.06;5021919;28;20100;-64
2021/06/15 09:14:50;;;;;;;7.55;3.90;;;;;;;27.36;43.57;96889.16;5025451;28;20576;-66
2021/06/15 09:17:28;;;;;;;6.32;3.13;;;;;;;27.56;43.74;96888.59;5015953;28;20045;-64
2021/06/15 09:20:10;;;;;;;6.28;3.65;;;;;;;27.70;42.33;96887.91;5022262;28;20041;-65
2021/06/15 09:22:36;;;;;;;7.88;3.25;;;;;;;27.46;44.63;96897.09;5016171;28;20371;-65
2021/06/15 09:25:06;;;;;;;8.60;3.65;;;;;;;27.72;42.19;96888.22;5027685;28;20053;-64
2021/06/15 09:27:36;;;;;;;5.13;2.95;;;;;;;28.01;40.24;96890.41;5028981;28;20127;-65
2021/06/15 09:30:07;;;;;;;8.57;3.25;;;;;;;28.37;41.92;96887.78;5024318;28;20052;-64
2021/06/15 09:32:39;;;;;;;9.68;2.95;;;;;;;28.13;43.43;96894.25;5023020;28;20077;-65
2021/06/15 09:35:09;;;;;;;7.45;3.28;;;;;;;28.25;43.13;96894.47;5015019;28;20108;-66
2021/06/15 09:37:36;;;;;;;8.07;3.67;;;;;;;27.97;43.11;96898.25;5004166;28;20144;-64
2021/06/15 09:40:10;;;;;;;8.93;3.38;;;;;;;27.69;44.66;96896.81;5018231;28;20103;-65
2021/06/15 09:43:09;;;;;;;6.47;3.83;;;;;;;27.13;45.03;96910.31;5021433;28;20628;-65
2021/06/15 09:45:43;;;;;;;6.63;3.30;;;;;;;27.36;44.36;96903.22;5016559;28;20072;-65
2021/06/15 09:48:35;;;;;;;6.07;3.67;;;;;;;27.32;45.09;96894.19;5014002;28;20041;-65
2021/06/15 09:51:09;;;;;;;6.63;3.63;;;;;;;27.56;44.72;96900.63;5022736;28;20041;-65
2021/06/15 09:53:38;;;;;;;6.78;3.53;;;;;;;27.24;44.92;96905.75;5019151;28;20100;-64
2021/06/15 09:56:09;;;;;;;11.82;3.58;;;;;;;27.11;44.71;96910.00;5023833;28;20409;-63
2021/06/15 09:58:51;;;;;;;8.25;3.92;;;;;;;27.24;45.95;96899.31;5026640;28;20080;-66
2021/06/15 10:01:39;;;;;;;9.10;2.90;;;;;;;27.41;44.82;96896.97;5020754;28;20060;-65
2021/06/15 10:04:18;;;;;;;10.65;3.88;;;;;;;27.49;44.01;96898.16;5014208;28;20494;-65
2021/06/15 10:06:49;;;;;;;7.90;3.97;;;;;;;27.05;45.51;96899.38;5020037;28;20038;-64
2021/06/15 10:09:34;;;;;;;10.82;3.60;;;;;;;27.11;46.52;96896.72;5013887;28;20050;-65
2021/06/15 10:12:07;;;;;;;8.98;3.70;;;;;;;27.22;45.26;96894.16;5023128;28;20043;-65
2021/06/15 10:14:34;;;;;;;8.35;3.47;;;;;;;27.38;45.82;96897.91;5036179;28;20049;-64
2021/06/15 10:17:00;;;;;;;6.93;3.67;;;;;;;27.19;45.42;96889.50;5029197;28;20064;-65
2021/06/15 10:19:26;;;;;;;5.68;3.38;;;;;;;27.33;45.34;96893.69;5017448;28;20105;-64
2021/06/15 10:21:53;;;;;;;7.25;3.92;;;;;;;27.38;45.53;96895.88;5024287;28;20045;-66
2021/06/15 10:24:23;;;;;;;7.38;4.03;;;;;;;27.16;45.09;96890.44;5017094;28;20046;-66
2021/06/15 10:26:49;;;;;;;5.45;3.30;;;;;;;26.97;46.49;96888.94;5021983;28;20045;-65
2021/06/15 10:29:16;;;;;;;5.85;3.50;;;;;;;26.71;47.06;96892.13;5016604;28;20064;-66
2021/06/15 10:31:43;;;;;;;8.18;3.72;;;;;;;26.82;46.41;96888.81;5020825;28;20041;-64
2021/06/15 10:34:09;;;;;;;8.38;3.33;;;;;;;27.06;45.84;96886.91;5016020;28;20041;-63
2021/06/15 10:36:45;;;;;;;5.70;3.33;;;;;;;26.89;46.31;96889.28;5002597;28;20052;-66
2021/06/15 10:39:35;;;;;;;8.45;3.28;;;;;;;27.18;45.68;96882.31;5016502;28;20037;-64
2021/06/15 10:42:14;;;;;;;7.03;3.53;;;;;;;26.89;47.35;96882.88;5020907;28;20048;-64
2021/06/15 10:44:40;;;;;;;8.55;3.75;;;;;;;27.49;45.77;96878.47;5019200;28;20569;-66
2021/06/15 10:47:14;;;;;;;5.70;3.13;;;;;;;27.77;44.93;96872.72;5013841;28;20050;-64
2021/06/15 10:50:00;;;;;;;6.70;2.85;;;;;;;27.77;43.49;96878.34;5021081;28;20564;-65
2021/06/15 10:52:46;;;;;;;7.63;3.15;;;;;;;27.91;43.33;96874.03;5005824;28;20100;-64
2021/06/15 10:55:50;;;;;;;6.55;3.10;;;;;;;27.97;41.94;96877.78;5018930;28;20087;-63
2021/06/15 10:58:17;;;;;;;4.53;3.10;;;;;;;27.89;44.55;96871.69;5021103;28;20029;-65
2021/06/15 11:00:51;;;;;;;9.50;3.47;;;;;;;27.93;43.04;96855.44;5021641;28;20521;-65
2021/06/15 11:03:16;;;;;;;12.32;3.45;;;;;;;28.02;44.19;96863.81;5014172;28;20049;-66
2021/06/15 11:05:57;;;;;;;8.40;3.20;;;;;;;28.17;42.71;96863.09;5020038;28;20472;-65
2021/06/15 11:08:31;;;;;;;5.13;2.90;;;;;;;28.14;44.01;96862.00;5015449;28;21352;-66
2021/06/15 11:11:02;;;;;;;8.52;2.80;;;;;;;28.48;41.51;96864.69;5024017;28;20518;-65
2021/06/15 11:13:47;;;;;;;4.70;3.28;;;;;;;28.57;41.63;96854.16;5016106;28;20133;-65
2021/06/15 11:16:36;;;;;;;12.45;3.25;;;;;;;28.15;42.63;96859.97;5017542;28;20033;-66
2021/06/15 11:19:08;;;;;;;4.30;2.42;;;;;;;28.24;42.68;96853.50;5000673;28;20044;-63
2021/06/15 11:21:45;;;;;;;7.10;2.97;;;;;;;28.56;41.87;96855.41;5018468;28;20053;-64
2021/06/15 11:24:50;;;;;;;4.55;3.05;;;;;;;28.28;42.56;96854.06;5014841;28;20055;-64
2021/06/15 11:27:32;;;;;;;3.92;2.88;;;;;;;28.14;42.46;96858.41;5013860;28;20060;-64
2021/06/15 11:30:18;;;;;;;8.80;2.90;;;;;;;28.16;42.25;96847.44;5018571;28;20045;-65
2021/06/15 11:32:57;;;;;;;4.20;2.63;;;;;;;28.64;41.74;96850.19;5016856;28;20433;-66
2021/06/15 11:35:22;;;;;;;5.90;2.42;;;;;;;28.69;39.93;96860.00;5012513;28;20057;-66
2021/06/15 11:37:51;;;;;;;3.70;2.40;;;;;;;28.32;39.44;96846.22;5019602;28;20041;-66
2021/06/15 11:40:29;;;;;;;4.05;2.28;;;;;;;28.32;41.37;96844.16;5014658;28;20136;-65
2021/06/15 11:43:11;;;;;;;6.20;2.30;;;;;;;28.66;40.13;96844.06;5017722;28;20049;-65
2021/06/15 11:45:40;;;;;;;3.97;2.40;;;;;;;28.71;39.04;96852.59;5019186;28;20051;-66
2021/06/15 11:48:38;;;;;;;5.53;2.03;;;;;;;28.78;39.10;96855.03;5014076;28;20045;-63